Terminal Aerodrome Forecast
Issued by NWS

Home | Current Version | Previous Version | Text Only | Print | Product List | Glossary On
Versions: 1 2 3 4 5 6 7 8 9 10 11 12 13 14 15 16 17 18 19 20 21 22
000
FTUS45 KABQ 232339
TAFTCC
TAF
KTCC 232339Z 2400/2424 22015KT P6SM SCT050
      TEMPO 2400/2402 22015G25KT
     FM240200 23009KT P6SM SCT090
     FM241800 24018G28KT P6SM FEW120=

USA.gov is the U.S. government's official web portal to all federal, state and local government web resources and services.